CheckWX is a tool to help pilots better visualize weather data.  It is not intended as a substitute for an official pre-flight weather briefing.

21:37:10 UTC

CZMD TAF
Muskrat Dam Airport
Muskrat Dam, Canada
TAF CZMD 201538Z 2016/2022 36005KT 4SM -SN BR OVC007 TEMPO 2016/2019 P6SM NSW OVC015 FM201900 VRB03KT P6SM OVC015 TEMPO 2019/2021 SCT015 BKN025 FM202100 24007KT P6SM BKN020 TEMPO 2021/2022 SCT020 RMK FCST BASED ON AUTO OBS. NXT FCST WILL BE ISSUED AT 210945Z

Mar-20@
16:00 UTC

Mar-20 @ 16:00 UTC

Mar-20@
19:00 UTC

Mar-20 @ 19:00 UTC

TAF CZMD 201538Z 2016/2022 36005KT 4SM -SN BR OVC007

Expired

Wind
  • 360° at 5 KTS
Conditions
Light Snow, Mist
Cloud Levels
  • Overcast at 700' AGL

Mar-20@
16:00 UTC

Mar-20 @ 16:00 UTC

Mar-20@
19:00 UTC

Mar-20 @ 19:00 UTC

TEMPO 2016/2019 P6SM NSW OVC015

Expired

Conditions
No significant weather
Cloud Levels
  • Overcast at 1,500' AGL

Mar-20@
19:00 UTC

Mar-20 @ 19:00 UTC

Mar-20@
21:00 UTC

Mar-20 @ 21:00 UTC

TEMPO 2019/2021 SCT015 BKN025

Expired

Cloud Levels
  • Scattered at 1,500' AGL
  • Broken at 2,500' AGL

Mar-20@
19:00 UTC

Mar-20 @ 19:00 UTC

Mar-20@
21:00 UTC

Mar-20 @ 21:00 UTC

FM201900 VRB03KT P6SM OVC015

Expired

Wind
  • Variable at 3 KTS
Cloud Levels
  • Overcast at 1,500' AGL

Mar-20@
21:00 UTC

Mar-20 @ 21:00 UTC

Mar-20@
22:00 UTC

Mar-20 @ 22:00 UTC

TEMPO 2021/2022 SCT020 RMK FCST BASED ON AUTO OBS. NXT FCST WILL BE ISSUED AT 210945Z

Temporary

Temporary Changes expected for less than half the time period

Cloud Levels
  • Scattered at 2,000' AGL

Mar-20@
21:00 UTC

Mar-20 @ 21:00 UTC

Mar-20@
22:00 UTC

Mar-20 @ 22:00 UTC

FM202100 24007KT P6SM BKN020

From

From Standard forecast or significant change

Wind
  • 240° at 7 KTS
Cloud Levels
  • Broken at 2,000' AGL